sensor_id;sensor_type;location;lat;lon;timestamp;P1;durP1;ratioP1;P2;durP2;ratioP2
23250;SDS011;11794;49.730;10.088;2023-06-22T00:01:16;15.63;;;8.50;;
23250;SDS011;11794;49.730;10.088;2023-06-22T00:03:42;18.63;;;9.88;;
23250;SDS011;11794;49.730;10.088;2023-06-22T00:06:07;30.07;;;15.60;;
23250;SDS011;11794;49.730;10.088;2023-06-22T00:08:33;45.42;;;26.20;;
23250;SDS011;11794;49.730;10.088;2023-06-22T00:10:58;33.03;;;20.33;;
23250;SDS011;11794;49.730;10.088;2023-06-22T00:13:24;25.50;;;15.97;;
23250;SDS011;11794;49.730;10.088;2023-06-22T00:15:49;21.67;;;11.77;;
23250;SDS011;11794;49.730;10.088;2023-06-22T00:18:15;16.87;;;10.00;;
23250;SDS011;11794;49.730;10.088;2023-06-22T00:20:41;17.53;;;9.57;;
23250;SDS011;11794;49.730;10.088;2023-06-22T00:23:07;18.48;;;9.68;;
23250;SDS011;11794;49.730;10.088;2023-06-22T00:25:33;14.77;;;9.20;;
23250;SDS011;11794;49.730;10.088;2023-06-22T00:28:05;16.40;;;8.95;;
23250;SDS011;11794;49.730;10.088;2023-06-22T00:30:31;17.40;;;9.77;;
23250;SDS011;11794;49.730;10.088;2023-06-22T00:32:57;17.55;;;9.52;;
23250;SDS011;11794;49.730;10.088;2023-06-22T00:35:23;17.50;;;9.82;;
23250;SDS011;11794;49.730;10.088;2023-06-22T00:37:54;19.07;;;10.40;;
23250;SDS011;11794;49.730;10.088;2023-06-22T00:40:25;17.20;;;9.37;;
23250;SDS011;11794;49.730;10.088;2023-06-22T00:42:55;19.92;;;9.75;;
23250;SDS011;11794;49.730;10.088;2023-06-22T00:45:23;20.02;;;9.02;;
23250;SDS011;11794;49.730;10.088;2023-06-22T00:47:50;19.83;;;8.82;;
23250;SDS011;11794;49.730;10.088;2023-06-22T00:50:18;19.33;;;9.73;;
23250;SDS011;11794;49.730;10.088;2023-06-22T00:52:47;20.90;;;9.63;;
23250;SDS011;11794;49.730;10.088;2023-06-22T00:55:15;15.27;;;8.90;;
23250;SDS011;11794;49.730;10.088;2023-06-22T00:57:42;15.50;;;9.00;;
23250;SDS011;11794;49.730;10.088;2023-06-22T01:00:10;14.00;;;8.18;;
23250;SDS011;11794;49.730;10.088;2023-06-22T01:02:41;16.70;;;8.20;;
23250;SDS011;11794;49.730;10.088;2023-06-22T01:05:11;16.40;;;9.13;;
23250;SDS011;11794;49.730;10.088;2023-06-22T01:07:42;15.27;;;8.75;;
23250;SDS011;11794;49.730;10.088;2023-06-22T01:10:31;15.73;;;8.77;;
23250;SDS011;11794;49.730;10.088;2023-06-22T01:13:11;17.40;;;9.48;;
23250;SDS011;11794;49.730;10.088;2023-06-22T01:15:44;15.80;;;9.45;;
23250;SDS011;11794;49.730;10.088;2023-06-22T01:18:14;15.43;;;8.90;;
23250;SDS011;11794;49.730;10.088;2023-06-22T01:20:42;17.48;;;8.73;;
23250;SDS011;11794;49.730;10.088;2023-06-22T01:26:19;17.65;;;9.02;;
23250;SDS011;11794;49.730;10.088;2023-06-22T01:28:53;15.77;;;9.63;;
23250;SDS011;11794;49.730;10.088;2023-06-22T01:31:22;16.90;;;9.40;;
23250;SDS011;11794;49.730;10.088;2023-06-22T01:33:51;16.42;;;8.23;;
23250;SDS011;11794;49.730;10.088;2023-06-22T01:36:20;15.68;;;8.27;;
23250;SDS011;11794;49.730;10.088;2023-06-22T01:38:47;15.80;;;9.27;;
23250;SDS011;11794;49.730;10.088;2023-06-22T01:41:13;15.85;;;8.77;;
23250;SDS011;11794;49.730;10.088;2023-06-22T01:43:39;14.80;;;8.35;;
23250;SDS011;11794;49.730;10.088;2023-06-22T01:46:06;16.88;;;8.52;;
23250;SDS011;11794;49.730;10.088;2023-06-22T01:48:32;16.52;;;8.93;;
23250;SDS011;11794;49.730;10.088;2023-06-22T01:50:59;15.70;;;9.35;;
23250;SDS011;11794;49.730;10.088;2023-06-22T01:53:25;17.63;;;9.27;;
23250;SDS011;11794;49.730;10.088;2023-06-22T01:55:50;16.80;;;8.95;;
23250;SDS011;11794;49.730;10.088;2023-06-22T01:58:16;16.38;;;9.68;;
23250;SDS011;11794;49.730;10.088;2023-06-22T02:00:48;18.20;;;9.33;;
23250;SDS011;11794;49.730;10.088;2023-06-22T02:03:19;20.07;;;9.50;;
23250;SDS011;11794;49.730;10.088;2023-06-22T02:05:49;17.95;;;9.57;;
23250;SDS011;11794;49.730;10.088;2023-06-22T02:08:20;17.45;;;9.90;;
23250;SDS011;11794;49.730;10.088;2023-06-22T02:10:52;18.58;;;10.38;;
23250;SDS011;11794;49.730;10.088;2023-06-22T02:13:19;21.13;;;10.68;;
23250;SDS011;11794;49.730;10.088;2023-06-22T02:15:45;19.95;;;11.40;;
23250;SDS011;11794;49.730;10.088;2023-06-22T02:18:12;19.75;;;10.57;;
23250;SDS011;11794;49.730;10.088;2023-06-22T02:20:39;20.92;;;11.10;;
23250;SDS011;11794;49.730;10.088;2023-06-22T02:23:07;19.00;;;10.80;;
23250;SDS011;11794;49.730;10.088;2023-06-22T02:25:33;23.13;;;11.57;;
23250;SDS011;11794;49.730;10.088;2023-06-22T02:27:59;22.10;;;11.85;;
23250;SDS011;11794;49.730;10.088;2023-06-22T02:30:25;20.63;;;12.57;;
23250;SDS011;11794;49.730;10.088;2023-06-22T02:32:50;22.90;;;12.53;;
23250;SDS011;11794;49.730;10.088;2023-06-22T02:35:23;23.17;;;12.18;;
23250;SDS011;11794;49.730;10.088;2023-06-22T02:38:00;19.85;;;12.10;;
23250;SDS011;11794;49.730;10.088;2023-06-22T02:40:27;21.00;;;12.75;;
23250;SDS011;11794;49.730;10.088;2023-06-22T02:42:54;21.48;;;12.60;;
23250;SDS011;11794;49.730;10.088;2023-06-22T02:45:20;22.58;;;12.52;;
23250;SDS011;11794;49.730;10.088;2023-06-22T02:47:46;22.63;;;12.60;;
23250;SDS011;11794;49.730;10.088;2023-06-22T02:50:12;26.40;;;12.68;;
23250;SDS011;11794;49.730;10.088;2023-06-22T02:52:38;24.75;;;13.63;;
23250;SDS011;11794;49.730;10.088;2023-06-22T02:55:04;24.87;;;12.87;;
23250;SDS011;11794;49.730;10.088;2023-06-22T02:57:32;22.58;;;12.98;;
23250;SDS011;11794;49.730;10.088;2023-06-22T02:59:58;18.58;;;11.88;;
23250;SDS011;11794;49.730;10.088;2023-06-22T03:02:24;21.35;;;12.45;;
23250;SDS011;11794;49.730;10.088;2023-06-22T03:04:51;25.52;;;12.65;;
23250;SDS011;11794;49.730;10.088;2023-06-22T03:07:18;22.73;;;12.77;;
23250;SDS011;11794;49.730;10.088;2023-06-22T03:09:44;20.73;;;12.83;;
23250;SDS011;11794;49.730;10.088;2023-06-22T03:12:10;22.08;;;13.30;;
23250;SDS011;11794;49.730;10.088;2023-06-22T03:14:35;24.08;;;14.32;;
23250;SDS011;11794;49.730;10.088;2023-06-22T03:17:01;24.43;;;13.23;;
23250;SDS011;11794;49.730;10.088;2023-06-22T03:19:28;23.67;;;13.80;;
23250;SDS011;11794;49.730;10.088;2023-06-22T03:21:56;21.63;;;13.07;;
23250;SDS011;11794;49.730;10.088;2023-06-22T03:24:22;23.67;;;14.10;;
23250;SDS011;11794;49.730;10.088;2023-06-22T03:26:48;21.40;;;13.17;;
23250;SDS011;11794;49.730;10.088;2023-06-22T03:29:13;23.27;;;13.27;;
23250;SDS011;11794;49.730;10.088;2023-06-22T03:31:39;24.63;;;13.95;;
23250;SDS011;11794;49.730;10.088;2023-06-22T03:34:04;22.87;;;12.63;;
23250;SDS011;11794;49.730;10.088;2023-06-22T03:36:30;23.10;;;12.95;;
23250;SDS011;11794;49.730;10.088;2023-06-22T03:38:55;24.17;;;13.10;;
23250;SDS011;11794;49.730;10.088;2023-06-22T03:41:21;23.50;;;12.93;;
23250;SDS011;11794;49.730;10.088;2023-06-22T03:43:46;21.20;;;12.43;;
23250;SDS011;11794;49.730;10.088;2023-06-22T03:46:12;19.63;;;11.43;;
23250;SDS011;11794;49.730;10.088;2023-06-22T03:48:38;23.40;;;12.32;;
23250;SDS011;11794;49.730;10.088;2023-06-22T03:51:03;20.63;;;12.53;;
23250;SDS011;11794;49.730;10.088;2023-06-22T03:53:29;20.42;;;11.75;;
23250;SDS011;11794;49.730;10.088;2023-06-22T03:55:55;18.57;;;10.93;;
23250;SDS011;11794;49.730;10.088;2023-06-22T03:58:21;17.13;;;10.65;;
23250;SDS011;11794;49.730;10.088;2023-06-22T04:00:47;20.38;;;11.50;;
23250;SDS011;11794;49.730;10.088;2023-06-22T04:03:16;19.27;;;11.57;;
23250;SDS011;11794;49.730;10.088;2023-06-22T04:05:45;21.97;;;11.33;;
23250;SDS011;11794;49.730;10.088;2023-06-22T04:08:12;21.07;;;11.17;;
23250;SDS011;11794;49.730;10.088;2023-06-22T04:10:38;17.88;;;11.13;;
23250;SDS011;11794;49.730;10.088;2023-06-22T04:13:05;17.70;;;11.35;;
23250;SDS011;11794;49.730;10.088;2023-06-22T04:15:30;18.52;;;10.68;;
23250;SDS011;11794;49.730;10.088;2023-06-22T04:17:56;17.43;;;11.00;;
23250;SDS011;11794;49.730;10.088;2023-06-22T04:20:22;19.02;;;12.18;;
23250;SDS011;11794;49.730;10.088;2023-06-22T04:22:50;19.10;;;12.20;;
23250;SDS011;11794;49.730;10.088;2023-06-22T04:25:19;20.15;;;10.98;;
23250;SDS011;11794;49.730;10.088;2023-06-22T04:27:45;18.77;;;11.07;;
23250;SDS011;11794;49.730;10.088;2023-06-22T04:30:11;20.33;;;11.98;;
23250;SDS011;11794;49.730;10.088;2023-06-22T04:32:37;17.80;;;10.30;;
23250;SDS011;11794;49.730;10.088;2023-06-22T04:35:03;18.80;;;11.43;;
23250;SDS011;11794;49.730;10.088;2023-06-22T04:37:32;17.17;;;10.77;;
23250;SDS011;11794;49.730;10.088;2023-06-22T04:39:58;19.20;;;11.77;;
23250;SDS011;11794;49.730;10.088;2023-06-22T04:42:25;18.10;;;11.65;;
23250;SDS011;11794;49.730;10.088;2023-06-22T04:44:51;18.50;;;11.05;;
23250;SDS011;11794;49.730;10.088;2023-06-22T04:47:17;18.23;;;11.27;;
23250;SDS011;11794;49.730;10.088;2023-06-22T04:49:43;20.23;;;10.93;;
23250;SDS011;11794;49.730;10.088;2023-06-22T04:52:10;18.17;;;11.32;;
23250;SDS011;11794;49.730;10.088;2023-06-22T04:54:38;20.42;;;11.45;;
23250;SDS011;11794;49.730;10.088;2023-06-22T04:57:05;16.67;;;10.00;;
23250;SDS011;11794;49.730;10.088;2023-06-22T04:59:35;19.43;;;10.97;;
23250;SDS011;11794;49.730;10.088;2023-06-22T05:02:03;18.52;;;10.75;;
23250;SDS011;11794;49.730;10.088;2023-06-22T05:04:30;21.73;;;11.60;;
23250;SDS011;11794;49.730;10.088;2023-06-22T05:06:56;19.60;;;11.45;;
23250;SDS011;11794;49.730;10.088;2023-06-22T05:09:22;20.37;;;11.23;;
23250;SDS011;11794;49.730;10.088;2023-06-22T05:11:49;17.93;;;10.70;;
23250;SDS011;11794;49.730;10.088;2023-06-22T05:14:15;21.80;;;13.07;;
23250;SDS011;11794;49.730;10.088;2023-06-22T05:16:41;20.02;;;11.27;;
23250;SDS011;11794;49.730;10.088;2023-06-22T05:19:08;18.67;;;10.30;;
23250;SDS011;11794;49.730;10.088;2023-06-22T05:21:33;19.83;;;11.27;;
23250;SDS011;11794;49.730;10.088;2023-06-22T05:23:59;20.77;;;12.30;;
23250;SDS011;11794;49.730;10.088;2023-06-22T05:26:27;19.75;;;11.70;;
23250;SDS011;11794;49.730;10.088;2023-06-22T05:28:54;20.33;;;11.90;;
23250;SDS011;11794;49.730;10.088;2023-06-22T05:31:19;18.23;;;11.67;;
23250;SDS011;11794;49.730;10.088;2023-06-22T05:33:45;20.80;;;11.50;;
23250;SDS011;11794;49.730;10.088;2023-06-22T05:36:11;20.38;;;11.50;;
23250;SDS011;11794;49.730;10.088;2023-06-22T05:38:37;18.05;;;10.82;;
23250;SDS011;11794;49.730;10.088;2023-06-22T05:41:04;19.93;;;10.87;;
23250;SDS011;11794;49.730;10.088;2023-06-22T05:43:30;18.77;;;11.63;;
23250;SDS011;11794;49.730;10.088;2023-06-22T05:45:55;20.20;;;11.95;;
23250;SDS011;11794;49.730;10.088;2023-06-22T05:48:21;17.95;;;11.15;;
23250;SDS011;11794;49.730;10.088;2023-06-22T05:50:47;17.93;;;10.80;;
23250;SDS011;11794;49.730;10.088;2023-06-22T05:53:13;17.77;;;10.93;;
23250;SDS011;11794;49.730;10.088;2023-06-22T05:55:38;17.13;;;10.00;;
23250;SDS011;11794;49.730;10.088;2023-06-22T05:58:04;18.35;;;10.32;;
23250;SDS011;11794;49.730;10.088;2023-06-22T06:00:30;16.27;;;10.33;;
23250;SDS011;11794;49.730;10.088;2023-06-22T06:02:56;15.38;;;9.40;;
23250;SDS011;11794;49.730;10.088;2023-06-22T06:05:22;15.07;;;9.53;;
23250;SDS011;11794;49.730;10.088;2023-06-22T06:07:48;16.50;;;10.27;;
23250;SDS011;11794;49.730;10.088;2023-06-22T06:10:14;15.93;;;10.07;;
23250;SDS011;11794;49.730;10.088;2023-06-22T06:12:40;16.90;;;10.13;;
23250;SDS011;11794;49.730;10.088;2023-06-22T06:15:05;16.08;;;10.25;;
23250;SDS011;11794;49.730;10.088;2023-06-22T06:17:31;16.52;;;10.18;;
23250;SDS011;11794;49.730;10.088;2023-06-22T06:19:58;21.93;;;10.43;;
23250;SDS011;11794;49.730;10.088;2023-06-22T06:22:24;16.58;;;9.73;;
23250;SDS011;11794;49.730;10.088;2023-06-22T06:24:50;16.57;;;10.33;;
23250;SDS011;11794;49.730;10.088;2023-06-22T06:27:15;15.63;;;10.38;;
23250;SDS011;11794;49.730;10.088;2023-06-22T06:29:43;18.80;;;10.27;;
23250;SDS011;11794;49.730;10.088;2023-06-22T06:32:10;16.90;;;9.70;;
23250;SDS011;11794;49.730;10.088;2023-06-22T06:34:36;15.43;;;9.32;;
23250;SDS011;11794;49.730;10.088;2023-06-22T06:37:01;14.53;;;9.20;;
23250;SDS011;11794;49.730;10.088;2023-06-22T06:39:27;17.88;;;10.77;;
23250;SDS011;11794;49.730;10.088;2023-06-22T06:41:52;14.73;;;9.87;;
23250;SDS011;11794;49.730;10.088;2023-06-22T06:44:18;16.10;;;9.20;;
23250;SDS011;11794;49.730;10.088;2023-06-22T06:46:43;15.00;;;9.82;;
23250;SDS011;11794;49.730;10.088;2023-06-22T06:49:09;16.30;;;9.77;;
23250;SDS011;11794;49.730;10.088;2023-06-22T06:51:34;15.77;;;8.97;;
23250;SDS011;11794;49.730;10.088;2023-06-22T06:54:00;13.68;;;8.65;;
23250;SDS011;11794;49.730;10.088;2023-06-22T06:56:26;18.98;;;10.18;;
23250;SDS011;11794;49.730;10.088;2023-06-22T06:58:51;14.50;;;9.43;;
23250;SDS011;11794;49.730;10.088;2023-06-22T07:01:17;16.90;;;10.85;;
23250;SDS011;11794;49.730;10.088;2023-06-22T07:03:44;17.00;;;9.63;;
23250;SDS011;11794;49.730;10.088;2023-06-22T07:06:10;16.87;;;9.97;;
23250;SDS011;11794;49.730;10.088;2023-06-22T07:08:35;15.33;;;9.53;;
23250;SDS011;11794;49.730;10.088;2023-06-22T07:11:01;13.73;;;9.00;;
23250;SDS011;11794;49.730;10.088;2023-06-22T07:13:27;17.58;;;8.93;;
23250;SDS011;11794;49.730;10.088;2023-06-22T07:15:53;16.30;;;9.10;;
23250;SDS011;11794;49.730;10.088;2023-06-22T07:18:18;14.65;;;9.32;;
23250;SDS011;11794;49.730;10.088;2023-06-22T07:20:44;15.30;;;9.00;;
23250;SDS011;11794;49.730;10.088;2023-06-22T07:23:09;14.98;;;9.13;;
23250;SDS011;11794;49.730;10.088;2023-06-22T07:25:35;15.53;;;9.00;;
23250;SDS011;11794;49.730;10.088;2023-06-22T07:28:02;13.10;;;8.10;;
23250;SDS011;11794;49.730;10.088;2023-06-22T07:30:29;15.25;;;9.15;;
23250;SDS011;11794;49.730;10.088;2023-06-22T07:32:56;14.77;;;8.63;;
23250;SDS011;11794;49.730;10.088;2023-06-22T07:35:23;14.57;;;8.48;;
23250;SDS011;11794;49.730;10.088;2023-06-22T07:37:48;13.02;;;8.13;;
23250;SDS011;11794;49.730;10.088;2023-06-22T07:40:14;14.20;;;8.90;;
23250;SDS011;11794;49.730;10.088;2023-06-22T07:42:39;13.82;;;8.27;;
23250;SDS011;11794;49.730;10.088;2023-06-22T07:45:06;14.13;;;8.63;;
23250;SDS011;11794;49.730;10.088;2023-06-22T07:47:33;14.70;;;8.70;;
23250;SDS011;11794;49.730;10.088;2023-06-22T07:50:00;14.05;;;8.70;;
23250;SDS011;11794;49.730;10.088;2023-06-22T07:52:26;15.65;;;8.73;;
23250;SDS011;11794;49.730;10.088;2023-06-22T07:54:52;12.23;;;7.23;;
23250;SDS011;11794;49.730;10.088;2023-06-22T07:57:18;11.43;;;7.70;;
23250;SDS011;11794;49.730;10.088;2023-06-22T07:59:44;11.52;;;7.80;;
23250;SDS011;11794;49.730;10.088;2023-06-22T08:02:09;12.43;;;8.40;;
23250;SDS011;11794;49.730;10.088;2023-06-22T08:04:35;11.88;;;7.40;;
23250;SDS011;11794;49.730;10.088;2023-06-22T08:07:01;12.53;;;7.17;;
23250;SDS011;11794;49.730;10.088;2023-06-22T08:09:30;13.73;;;6.35;;
23250;SDS011;11794;49.730;10.088;2023-06-22T08:11:56;10.13;;;6.33;;
23250;SDS011;11794;49.730;10.088;2023-06-22T08:14:23;9.90;;;6.20;;
23250;SDS011;11794;49.730;10.088;2023-06-22T08:16:50;10.13;;;6.38;;
23250;SDS011;11794;49.730;10.088;2023-06-22T08:19:15;11.53;;;6.43;;
23250;SDS011;11794;49.730;10.088;2023-06-22T08:21:41;11.93;;;6.43;;
23250;SDS011;11794;49.730;10.088;2023-06-22T08:24:07;12.38;;;6.22;;
23250;SDS011;11794;49.730;10.088;2023-06-22T08:26:32;10.30;;;6.40;;
23250;SDS011;11794;49.730;10.088;2023-06-22T08:29:01;9.23;;;5.72;;
23250;SDS011;11794;49.730;10.088;2023-06-22T08:31:27;11.10;;;5.90;;
23250;SDS011;11794;49.730;10.088;2023-06-22T08:33:52;12.53;;;6.33;;
23250;SDS011;11794;49.730;10.088;2023-06-22T08:36:18;8.85;;;5.38;;
23250;SDS011;11794;49.730;10.088;2023-06-22T08:38:44;9.67;;;6.20;;
23250;SDS011;11794;49.730;10.088;2023-06-22T08:41:09;10.50;;;6.35;;
23250;SDS011;11794;49.730;10.088;2023-06-22T08:43:35;10.53;;;5.97;;
23250;SDS011;11794;49.730;10.088;2023-06-22T08:46:01;10.20;;;5.10;;
23250;SDS011;11794;49.730;10.088;2023-06-22T08:48:27;9.52;;;5.75;;
23250;SDS011;11794;49.730;10.088;2023-06-22T08:50:53;9.17;;;5.90;;
23250;SDS011;11794;49.730;10.088;2023-06-22T08:53:19;8.85;;;5.25;;
23250;SDS011;11794;49.730;10.088;2023-06-22T08:55:44;9.47;;;5.87;;
23250;SDS011;11794;49.730;10.088;2023-06-22T08:58:10;9.35;;;5.45;;
23250;SDS011;11794;49.730;10.088;2023-06-22T09:00:35;8.63;;;5.77;;
23250;SDS011;11794;49.730;10.088;2023-06-22T09:03:02;10.40;;;5.53;;
23250;SDS011;11794;49.730;10.088;2023-06-22T09:05:28;8.57;;;5.63;;
23250;SDS011;11794;49.730;10.088;2023-06-22T09:07:55;8.53;;;5.00;;
23250;SDS011;11794;49.730;10.088;2023-06-22T09:10:21;8.73;;;5.10;;
23250;SDS011;11794;49.730;10.088;2023-06-22T09:12:47;11.52;;;5.30;;
23250;SDS011;11794;49.730;10.088;2023-06-22T09:15:12;8.63;;;5.57;;
23250;SDS011;11794;49.730;10.088;2023-06-22T09:17:38;9.75;;;5.07;;
23250;SDS011;11794;49.730;10.088;2023-06-22T09:20:03;8.73;;;5.23;;
23250;SDS011;11794;49.730;10.088;2023-06-22T09:22:30;13.50;;;5.18;;
23250;SDS011;11794;49.730;10.088;2023-06-22T09:24:56;8.35;;;5.43;;
23250;SDS011;11794;49.730;10.088;2023-06-22T09:27:23;7.68;;;5.00;;
23250;SDS011;11794;49.730;10.088;2023-06-22T09:29:49;8.77;;;4.80;;
23250;SDS011;11794;49.730;10.088;2023-06-22T09:32:15;8.25;;;4.40;;
23250;SDS011;11794;49.730;10.088;2023-06-22T09:34:40;9.77;;;4.97;;
23250;SDS011;11794;49.730;10.088;2023-06-22T09:37:06;8.15;;;4.53;;
23250;SDS011;11794;49.730;10.088;2023-06-22T09:39:32;9.33;;;4.70;;
23250;SDS011;11794;49.730;10.088;2023-06-22T09:41:58;9.70;;;4.90;;
23250;SDS011;11794;49.730;10.088;2023-06-22T09:44:24;9.02;;;5.28;;
23250;SDS011;11794;49.730;10.088;2023-06-22T09:46:49;8.13;;;4.80;;
23250;SDS011;11794;49.730;10.088;2023-06-22T09:49:15;7.95;;;4.47;;
23250;SDS011;11794;49.730;10.088;2023-06-22T09:51:40;10.23;;;4.80;;
23250;SDS011;11794;49.730;10.088;2023-06-22T09:54:06;8.47;;;4.77;;
23250;SDS011;11794;49.730;10.088;2023-06-22T09:56:31;7.43;;;4.87;;
23250;SDS011;11794;49.730;10.088;2023-06-22T09:58:57;7.68;;;4.60;;
23250;SDS011;11794;49.730;10.088;2023-06-22T10:01:23;9.40;;;4.87;;
23250;SDS011;11794;49.730;10.088;2023-06-22T10:03:49;9.10;;;4.70;;
23250;SDS011;11794;49.730;10.088;2023-06-22T10:06:15;8.05;;;4.60;;
23250;SDS011;11794;49.730;10.088;2023-06-22T10:08:40;10.37;;;4.10;;
23250;SDS011;11794;49.730;10.088;2023-06-22T10:11:06;8.27;;;4.30;;
23250;SDS011;11794;49.730;10.088;2023-06-22T10:13:32;8.75;;;4.13;;
23250;SDS011;11794;49.730;10.088;2023-06-22T10:15:57;7.10;;;3.97;;
23250;SDS011;11794;49.730;10.088;2023-06-22T10:18:23;9.05;;;4.60;;
23250;SDS011;11794;49.730;10.088;2023-06-22T10:20:49;8.87;;;4.53;;
23250;SDS011;11794;49.730;10.088;2023-06-22T10:23:16;12.80;;;4.50;;
23250;SDS011;11794;49.730;10.088;2023-06-22T10:25:42;8.77;;;4.30;;
23250;SDS011;11794;49.730;10.088;2023-06-22T10:28:08;10.03;;;4.93;;
23250;SDS011;11794;49.730;10.088;2023-06-22T10:30:33;8.30;;;4.40;;
23250;SDS011;11794;49.730;10.088;2023-06-22T10:32:59;9.43;;;4.77;;
23250;SDS011;11794;49.730;10.088;2023-06-22T10:35:24;7.93;;;4.40;;
23250;SDS011;11794;49.730;10.088;2023-06-22T10:37:50;9.43;;;4.80;;
23250;SDS011;11794;49.730;10.088;2023-06-22T10:40:16;10.97;;;4.43;;
23250;SDS011;11794;49.730;10.088;2023-06-22T10:42:43;8.80;;;4.43;;
23250;SDS011;11794;49.730;10.088;2023-06-22T10:45:09;10.10;;;4.50;;
23250;SDS011;11794;49.730;10.088;2023-06-22T10:47:35;9.80;;;4.57;;
23250;SDS011;11794;49.730;10.088;2023-06-22T10:50:01;9.25;;;4.00;;
23250;SDS011;11794;49.730;10.088;2023-06-22T10:52:27;8.60;;;4.60;;
23250;SDS011;11794;49.730;10.088;2023-06-22T10:54:53;10.57;;;4.50;;
23250;SDS011;11794;49.730;10.088;2023-06-22T10:57:18;7.77;;;5.00;;
23250;SDS011;11794;49.730;10.088;2023-06-22T10:59:44;9.65;;;4.78;;
23250;SDS011;11794;49.730;10.088;2023-06-22T11:02:10;9.37;;;4.60;;
23250;SDS011;11794;49.730;10.088;2023-06-22T11:04:35;11.88;;;4.78;;
23250;SDS011;11794;49.730;10.088;2023-06-22T11:07:01;8.27;;;4.63;;
23250;SDS011;11794;49.730;10.088;2023-06-22T11:09:26;8.88;;;4.97;;
23250;SDS011;11794;49.730;10.088;2023-06-22T11:11:52;9.20;;;4.97;;
23250;SDS011;11794;49.730;10.088;2023-06-22T11:14:21;9.85;;;4.75;;
23250;SDS011;11794;49.730;10.088;2023-06-22T11:16:47;9.07;;;4.97;;
23250;SDS011;11794;49.730;10.088;2023-06-22T11:19:12;13.10;;;4.90;;
23250;SDS011;11794;49.730;10.088;2023-06-22T11:21:38;10.77;;;4.38;;
23250;SDS011;11794;49.730;10.088;2023-06-22T11:24:04;10.27;;;5.03;;
23250;SDS011;11794;49.730;10.088;2023-06-22T11:26:30;10.70;;;4.50;;
23250;SDS011;11794;49.730;10.088;2023-06-22T11:28:56;8.98;;;4.20;;
23250;SDS011;11794;49.730;10.088;2023-06-22T11:31:22;9.52;;;5.05;;
23250;SDS011;11794;49.730;10.088;2023-06-22T11:33:48;8.73;;;4.47;;
23250;SDS011;11794;49.730;10.088;2023-06-22T11:36:14;9.13;;;4.43;;
23250;SDS011;11794;49.730;10.088;2023-06-22T11:38:40;9.15;;;4.85;;
23250;SDS011;11794;49.730;10.088;2023-06-22T11:41:06;8.77;;;4.80;;
23250;SDS011;11794;49.730;10.088;2023-06-22T11:43:32;10.13;;;4.78;;
23250;SDS011;11794;49.730;10.088;2023-06-22T11:45:58;11.52;;;4.63;;
23250;SDS011;11794;49.730;10.088;2023-06-22T11:48:24;12.50;;;5.07;;
23250;SDS011;11794;49.730;10.088;2023-06-22T11:50:50;14.13;;;5.10;;
23250;SDS011;11794;49.730;10.088;2023-06-22T11:53:16;9.80;;;4.37;;
23250;SDS011;11794;49.730;10.088;2023-06-22T11:55:42;8.70;;;4.78;;
23250;SDS011;11794;49.730;10.088;2023-06-22T11:58:08;11.80;;;5.07;;
23250;SDS011;11794;49.730;10.088;2023-06-22T12:00:34;8.63;;;4.57;;
23250;SDS011;11794;49.730;10.088;2023-06-22T12:02:59;10.02;;;4.78;;
23250;SDS011;11794;49.730;10.088;2023-06-22T12:05:25;9.53;;;4.73;;
23250;SDS011;11794;49.730;10.088;2023-06-22T12:07:52;10.70;;;5.10;;
23250;SDS011;11794;49.730;10.088;2023-06-22T12:10:18;10.02;;;4.50;;
23250;SDS011;11794;49.730;10.088;2023-06-22T12:12:45;10.77;;;5.03;;
23250;SDS011;11794;49.730;10.088;2023-06-22T12:15:10;8.83;;;5.37;;
23250;SDS011;11794;49.730;10.088;2023-06-22T12:17:36;10.75;;;5.32;;
23250;SDS011;11794;49.730;10.088;2023-06-22T12:20:02;10.93;;;5.07;;
23250;SDS011;11794;49.730;10.088;2023-06-22T12:22:30;9.68;;;5.40;;
23250;SDS011;11794;49.730;10.088;2023-06-22T12:24:59;10.80;;;5.43;;
23250;SDS011;11794;49.730;10.088;2023-06-22T12:27:25;12.18;;;5.03;;
23250;SDS011;11794;49.730;10.088;2023-06-22T12:29:50;12.90;;;5.33;;
23250;SDS011;11794;49.730;10.088;2023-06-22T12:32:16;12.30;;;5.00;;
23250;SDS011;11794;49.730;10.088;2023-06-22T12:34:42;11.70;;;5.90;;
23250;SDS011;11794;49.730;10.088;2023-06-22T12:37:08;10.52;;;5.28;;
23250;SDS011;11794;49.730;10.088;2023-06-22T12:39:33;12.90;;;5.72;;
23250;SDS011;11794;49.730;10.088;2023-06-22T12:41:59;9.97;;;5.20;;
23250;SDS011;11794;49.730;10.088;2023-06-22T12:44:25;12.57;;;5.15;;
23250;SDS011;11794;49.730;10.088;2023-06-22T12:46:50;10.53;;;5.30;;
23250;SDS011;11794;49.730;10.088;2023-06-22T12:49:16;14.20;;;6.10;;
23250;SDS011;11794;49.730;10.088;2023-06-22T12:51:42;19.30;;;7.40;;
23250;SDS011;11794;49.730;10.088;2023-06-22T12:54:08;10.07;;;5.05;;
23250;SDS011;11794;49.730;10.088;2023-06-22T12:56:35;12.75;;;5.15;;
23250;SDS011;11794;49.730;10.088;2023-06-22T12:59:00;9.20;;;4.33;;
23250;SDS011;11794;49.730;10.088;2023-06-22T13:01:26;13.48;;;6.28;;
23250;SDS011;11794;49.730;10.088;2023-06-22T13:03:56;10.65;;;4.90;;
23250;SDS011;11794;49.730;10.088;2023-06-22T13:06:22;13.48;;;6.15;;
23250;SDS011;11794;49.730;10.088;2023-06-22T13:08:48;15.67;;;6.90;;
23250;SDS011;11794;49.730;10.088;2023-06-22T13:11:13;20.65;;;8.68;;
23250;SDS011;11794;49.730;10.088;2023-06-22T13:13:39;14.50;;;6.60;;
23250;SDS011;11794;49.730;10.088;2023-06-22T13:16:05;11.35;;;4.78;;
23250;SDS011;11794;49.730;10.088;2023-06-22T13:18:30;18.63;;;8.23;;
23250;SDS011;11794;49.730;10.088;2023-06-22T13:20:56;12.13;;;5.22;;
23250;SDS011;11794;49.730;10.088;2023-06-22T13:23:23;24.90;;;10.48;;
23250;SDS011;11794;49.730;10.088;2023-06-22T13:25:48;12.77;;;5.97;;
23250;SDS011;11794;49.730;10.088;2023-06-22T13:28:14;13.38;;;5.55;;
23250;SDS011;11794;49.730;10.088;2023-06-22T13:30:41;11.90;;;5.15;;
23250;SDS011;11794;49.730;10.088;2023-06-22T13:33:07;11.35;;;5.10;;
23250;SDS011;11794;49.730;10.088;2023-06-22T13:35:33;11.77;;;6.00;;
23250;SDS011;11794;49.730;10.088;2023-06-22T13:38:00;12.13;;;6.40;;
23250;SDS011;11794;49.730;10.088;2023-06-22T13:40:25;12.00;;;4.80;;
23250;SDS011;11794;49.730;10.088;2023-06-22T13:42:51;12.82;;;5.40;;
23250;SDS011;11794;49.730;10.088;2023-06-22T13:45:16;13.63;;;6.20;;
23250;SDS011;11794;49.730;10.088;2023-06-22T13:47:43;10.15;;;4.65;;
23250;SDS011;11794;49.730;10.088;2023-06-22T13:50:09;10.53;;;4.40;;
23250;SDS011;11794;49.730;10.088;2023-06-22T13:52:35;10.20;;;4.88;;
23250;SDS011;11794;49.730;10.088;2023-06-22T13:55:01;12.25;;;5.72;;
23250;SDS011;11794;49.730;10.088;2023-06-22T13:57:27;23.33;;;8.07;;
23250;SDS011;11794;49.730;10.088;2023-06-22T13:59:52;15.20;;;5.30;;
23250;SDS011;11794;49.730;10.088;2023-06-22T14:02:18;8.43;;;4.13;;
23250;SDS011;11794;49.730;10.088;2023-06-22T14:04:43;11.23;;;4.65;;
23250;SDS011;11794;49.730;10.088;2023-06-22T14:07:09;11.10;;;4.80;;
23250;SDS011;11794;49.730;10.088;2023-06-22T14:09:34;12.67;;;4.60;;
23250;SDS011;11794;49.730;10.088;2023-06-22T14:12:04;10.27;;;5.18;;
23250;SDS011;11794;49.730;10.088;2023-06-22T14:14:31;9.20;;;5.07;;
23250;SDS011;11794;49.730;10.088;2023-06-22T14:16:57;11.88;;;5.18;;
23250;SDS011;11794;49.730;10.088;2023-06-22T14:19:23;9.37;;;4.67;;